sensor_id;sensor_type;location;lat;lon;timestamp;pressure;altitude;pressure_sealevel;temperature;humidity
39613;BME280;25303;48.896;13.342;2023-02-17T00:00:56;93599.25;;;3.04;65.21
39613;BME280;25303;48.896;13.342;2023-02-17T00:03:39;93594.63;;;3.11;65.36
39613;BME280;25303;48.896;13.342;2023-02-17T00:06:24;93587.50;;;3.16;65.21
39613;BME280;25303;48.896;13.342;2023-02-17T00:09:07;93583.06;;;3.20;65.24
39613;BME280;25303;48.896;13.342;2023-02-17T00:11:51;93587.13;;;3.23;65.42
39613;BME280;25303;48.896;13.342;2023-02-17T00:14:37;93584.59;;;3.23;65.06
39613;BME280;25303;48.896;13.342;2023-02-17T00:17:20;93589.69;;;3.23;65.04
39613;BME280;25303;48.896;13.342;2023-02-17T00:20:03;93582.22;;;3.19;65.49
39613;BME280;25303;48.896;13.342;2023-02-17T00:22:46;93595.97;;;3.17;65.41
39613;BME280;25303;48.896;13.342;2023-02-17T00:25:29;93585.16;;;3.13;65.39
39613;BME280;25303;48.896;13.342;2023-02-17T00:28:12;93587.72;;;3.13;65.58
39613;BME280;25303;48.896;13.342;2023-02-17T00:30:56;93581.78;;;3.13;65.40
39613;BME280;25303;48.896;13.342;2023-02-17T00:33:40;93584.25;;;3.14;65.47
39613;BME280;25303;48.896;13.342;2023-02-17T00:36:24;93579.97;;;3.15;65.44
39613;BME280;25303;48.896;13.342;2023-02-17T00:39:07;93585.06;;;3.15;65.56
39613;BME280;25303;48.896;13.342;2023-02-17T00:41:50;93572.53;;;3.12;65.52
39613;BME280;25303;48.896;13.342;2023-02-17T00:44:34;93567.44;;;3.12;65.67
39613;BME280;25303;48.896;13.342;2023-02-17T00:47:18;93575.16;;;3.10;65.69
39613;BME280;25303;48.896;13.342;2023-02-17T00:50:01;93570.09;;;3.10;65.87
39613;BME280;25303;48.896;13.342;2023-02-17T00:52:44;93568.53;;;3.08;66.07
39613;BME280;25303;48.896;13.342;2023-02-17T00:55:27;93568.44;;;3.09;66.37
39613;BME280;25303;48.896;13.342;2023-02-17T00:58:09;93569.53;;;3.05;67.39
39613;BME280;25303;48.896;13.342;2023-02-17T01:00:54;93562.25;;;3.13;66.61
39613;BME280;25303;48.896;13.342;2023-02-17T01:03:38;93556.34;;;3.13;66.20
39613;BME280;25303;48.896;13.342;2023-02-17T01:06:24;93562.53;;;3.09;66.25
39613;BME280;25303;48.896;13.342;2023-02-17T01:09:12;93551.72;;;3.05;66.71
39613;BME280;25303;48.896;13.342;2023-02-17T01:11:55;93553.41;;;2.92;67.28
39613;BME280;25303;48.896;13.342;2023-02-17T01:14:38;93551.56;;;2.94;66.82
39613;BME280;25303;48.896;13.342;2023-02-17T01:17:21;93548.94;;;2.95;66.64
39613;BME280;25303;48.896;13.342;2023-02-17T01:20:06;93546.19;;;2.98;67.10
39613;BME280;25303;48.896;13.342;2023-02-17T01:22:49;93538.84;;;2.94;67.38
39613;BME280;25303;48.896;13.342;2023-02-17T01:25:35;93545.59;;;2.95;67.55
39613;BME280;25303;48.896;13.342;2023-02-17T01:28:20;93550.50;;;2.98;67.26
39613;BME280;25303;48.896;13.342;2023-02-17T01:31:04;93540.22;;;2.99;68.38
39613;BME280;25303;48.896;13.342;2023-02-17T01:33:48;93533.56;;;3.11;67.76
39613;BME280;25303;48.896;13.342;2023-02-17T01:36:32;93534.72;;;3.20;67.61
39613;BME280;25303;48.896;13.342;2023-02-17T01:39:15;93530.25;;;3.24;66.98
39613;BME280;25303;48.896;13.342;2023-02-17T01:42:00;93524.25;;;3.25;67.19
39613;BME280;25303;48.896;13.342;2023-02-17T01:45:26;93526.06;;;3.23;67.34
39613;BME280;25303;48.896;13.342;2023-02-17T01:48:11;93524.25;;;3.25;67.17
39613;BME280;25303;48.896;13.342;2023-02-17T01:51:01;93523.41;;;3.24;67.32
39613;BME280;25303;48.896;13.342;2023-02-17T01:53:49;93516.00;;;3.21;67.75
39613;BME280;25303;48.896;13.342;2023-02-17T01:56:37;93514.25;;;3.22;67.40
39613;BME280;25303;48.896;13.342;2023-02-17T01:59:22;93520.16;;;3.22;67.53
39613;BME280;25303;48.896;13.342;2023-02-17T02:02:05;93512.72;;;3.19;67.74
39613;BME280;25303;48.896;13.342;2023-02-17T02:04:51;93510.19;;;3.19;67.80
39613;BME280;25303;48.896;13.342;2023-02-17T02:07:37;93514.44;;;3.18;67.95
39613;BME280;25303;48.896;13.342;2023-02-17T02:10:23;93516.19;;;3.18;67.76
39613;BME280;25303;48.896;13.342;2023-02-17T02:13:07;93506.81;;;3.18;68.20
39613;BME280;25303;48.896;13.342;2023-02-17T02:15:56;93507.72;;;3.17;68.39
39613;BME280;25303;48.896;13.342;2023-02-17T02:18:50;93506.63;;;3.22;68.50
39613;BME280;25303;48.896;13.342;2023-02-17T02:22:09;93510.78;;;3.23;68.42
39613;BME280;25303;48.896;13.342;2023-02-17T02:25:05;93507.34;;;3.24;68.30
39613;BME280;25303;48.896;13.342;2023-02-17T02:27:57;93497.69;;;3.29;68.06
39613;BME280;25303;48.896;13.342;2023-02-17T02:30:56;93488.44;;;3.28;67.85
39613;BME280;25303;48.896;13.342;2023-02-17T02:33:48;93495.97;;;3.29;67.95
39613;BME280;25303;48.896;13.342;2023-02-17T02:36:37;93486.69;;;3.28;67.81
39613;BME280;25303;48.896;13.342;2023-02-17T02:39:29;93479.47;;;3.22;67.99
39613;BME280;25303;48.896;13.342;2023-02-17T02:42:16;93482.28;;;3.17;68.05
39613;BME280;25303;48.896;13.342;2023-02-17T02:45:01;93477.41;;;3.14;68.21
39613;BME280;25303;48.896;13.342;2023-02-17T02:47:49;93479.84;;;3.16;68.26
39613;BME280;25303;48.896;13.342;2023-02-17T02:50:54;93475.34;;;3.19;68.29
39613;BME280;25303;48.896;13.342;2023-02-17T02:53:57;93473.72;;;3.18;68.26
39613;BME280;25303;48.896;13.342;2023-02-17T02:57:12;93469.75;;;3.14;68.19
39613;BME280;25303;48.896;13.342;2023-02-17T03:00:10;93464.88;;;3.11;68.38
39613;BME280;25303;48.896;13.342;2023-02-17T03:02:58;93470.03;;;3.10;68.23
39613;BME280;25303;48.896;13.342;2023-02-17T03:05:50;93468.41;;;3.09;68.37
39613;BME280;25303;48.896;13.342;2023-02-17T03:08:39;93460.56;;;3.12;68.51
39613;BME280;25303;48.896;13.342;2023-02-17T03:11:24;93463.59;;;3.31;67.93
39613;BME280;25303;48.896;13.342;2023-02-17T03:14:17;93470.25;;;3.47;67.37
39613;BME280;25303;48.896;13.342;2023-02-17T03:17:00;93466.41;;;3.54;67.19
39613;BME280;25303;48.896;13.342;2023-02-17T03:19:43;93467.81;;;3.58;66.96
39613;BME280;25303;48.896;13.342;2023-02-17T03:22:34;93476.91;;;3.62;66.90
39613;BME280;25303;48.896;13.342;2023-02-17T03:25:18;93469.25;;;3.62;66.90
39613;BME280;25303;48.896;13.342;2023-02-17T03:28:01;93474.34;;;3.62;66.64
39613;BME280;25303;48.896;13.342;2023-02-17T03:30:44;93473.63;;;3.60;66.47
39613;BME280;25303;48.896;13.342;2023-02-17T03:33:27;93477.09;;;3.59;66.56
39613;BME280;25303;48.896;13.342;2023-02-17T03:36:09;93476.06;;;3.49;67.19
39613;BME280;25303;48.896;13.342;2023-02-17T03:38:54;93470.78;;;3.52;66.81
39613;BME280;25303;48.896;13.342;2023-02-17T03:41:37;93475.94;;;3.50;66.57
39613;BME280;25303;48.896;13.342;2023-02-17T03:44:20;93472.69;;;3.48;66.51
39613;BME280;25303;48.896;13.342;2023-02-17T03:47:02;93474.19;;;3.38;66.98
39613;BME280;25303;48.896;13.342;2023-02-17T03:49:45;93469.47;;;3.32;66.82
39613;BME280;25303;48.896;13.342;2023-02-17T03:52:28;93472.69;;;3.08;67.95
39613;BME280;25303;48.896;13.342;2023-02-17T03:55:12;93463.56;;;3.18;66.97
39613;BME280;25303;48.896;13.342;2023-02-17T03:57:55;93472.38;;;3.13;67.19
39613;BME280;25303;48.896;13.342;2023-02-17T04:00:38;93469.22;;;3.09;66.97
39613;BME280;25303;48.896;13.342;2023-02-17T04:03:20;93464.94;;;3.10;67.23
39613;BME280;25303;48.896;13.342;2023-02-17T04:06:04;93459.66;;;3.13;66.95
39613;BME280;25303;48.896;13.342;2023-02-17T04:08:47;93468.63;;;3.18;67.39
39613;BME280;25303;48.896;13.342;2023-02-17T04:11:31;93472.19;;;3.16;67.90
39613;BME280;25303;48.896;13.342;2023-02-17T04:14:14;93468.56;;;3.20;67.21
39613;BME280;25303;48.896;13.342;2023-02-17T04:16:57;93476.47;;;3.15;67.45
39613;BME280;25303;48.896;13.342;2023-02-17T04:19:40;93480.03;;;3.13;67.81
39613;BME280;25303;48.896;13.342;2023-02-17T04:22:23;93467.84;;;3.18;67.55
39613;BME280;25303;48.896;13.342;2023-02-17T04:25:06;93470.47;;;3.16;67.51
39613;BME280;25303;48.896;13.342;2023-02-17T04:27:50;93472.00;;;3.19;67.70
39613;BME280;25303;48.896;13.342;2023-02-17T04:30:33;93461.53;;;3.24;67.94
39613;BME280;25303;48.896;13.342;2023-02-17T04:33:17;93469.41;;;3.33;67.67
39613;BME280;25303;48.896;13.342;2023-02-17T04:36:00;93459.75;;;3.39;67.64
39613;BME280;25303;48.896;13.342;2023-02-17T04:38:43;93465.88;;;3.49;67.33
39613;BME280;25303;48.896;13.342;2023-02-17T04:41:26;93471.56;;;3.53;67.27
39613;BME280;25303;48.896;13.342;2023-02-17T04:44:10;93462.59;;;3.47;67.35
39613;BME280;25303;48.896;13.342;2023-02-17T04:46:53;93460.41;;;3.55;67.15
39613;BME280;25303;48.896;13.342;2023-02-17T04:49:36;93463.63;;;3.57;66.82
39613;BME280;25303;48.896;13.342;2023-02-17T04:52:19;93466.19;;;3.57;66.95
39613;BME280;25303;48.896;13.342;2023-02-17T04:55:02;93463.13;;;3.52;66.75
39613;BME280;25303;48.896;13.342;2023-02-17T04:57:45;93461.81;;;3.46;66.86
39613;BME280;25303;48.896;13.342;2023-02-17T05:00:29;93458.81;;;3.40;66.98
39613;BME280;25303;48.896;13.342;2023-02-17T05:03:12;93457.72;;;3.44;66.89
39613;BME280;25303;48.896;13.342;2023-02-17T05:05:55;93459.16;;;3.48;66.79
39613;BME280;25303;48.896;13.342;2023-02-17T05:08:38;93460.06;;;3.47;66.84
39613;BME280;25303;48.896;13.342;2023-02-17T05:11:20;93464.25;;;3.48;67.03
39613;BME280;25303;48.896;13.342;2023-02-17T05:14:03;93463.22;;;3.50;67.00
39613;BME280;25303;48.896;13.342;2023-02-17T05:16:47;93462.13;;;3.55;67.15
39613;BME280;25303;48.896;13.342;2023-02-17T05:19:30;93463.13;;;3.52;67.40
39613;BME280;25303;48.896;13.342;2023-02-17T05:22:13;93458.78;;;3.54;67.81
39613;BME280;25303;48.896;13.342;2023-02-17T05:24:56;93457.63;;;3.58;67.42
39613;BME280;25303;48.896;13.342;2023-02-17T05:27:39;93454.91;;;3.61;67.97
39613;BME280;25303;48.896;13.342;2023-02-17T05:30:22;93455.63;;;3.63;67.78
39613;BME280;25303;48.896;13.342;2023-02-17T05:33:06;93463.25;;;3.63;67.88
39613;BME280;25303;48.896;13.342;2023-02-17T05:35:49;93455.72;;;3.62;68.24
39613;BME280;25303;48.896;13.342;2023-02-17T05:38:32;93457.63;;;3.58;68.43
39613;BME280;25303;48.896;13.342;2023-02-17T05:41:15;93462.72;;;3.58;68.86
39613;BME280;25303;48.896;13.342;2023-02-17T05:43:58;93461.09;;;3.57;69.45
39613;BME280;25303;48.896;13.342;2023-02-17T05:46:41;93457.84;;;3.55;69.74
39613;BME280;25303;48.896;13.342;2023-02-17T05:49:26;93461.09;;;3.57;70.07
39613;BME280;25303;48.896;13.342;2023-02-17T05:52:08;93461.19;;;3.56;71.72
39613;BME280;25303;48.896;13.342;2023-02-17T05:54:51;93463.03;;;3.54;70.81
39613;BME280;25303;48.896;13.342;2023-02-17T05:57:34;93462.94;;;3.55;71.11
39613;BME280;25303;48.896;13.342;2023-02-17T06:00:17;93459.47;;;3.56;71.12
39613;BME280;25303;48.896;13.342;2023-02-17T06:03:00;93461.09;;;3.57;71.46
39613;BME280;25303;48.896;13.342;2023-02-17T06:05:45;93450.91;;;3.57;71.42
39613;BME280;25303;48.896;13.342;2023-02-17T06:08:28;93455.09;;;3.58;71.56
39613;BME280;25303;48.896;13.342;2023-02-17T06:11:11;93457.56;;;3.60;71.88
39613;BME280;25303;48.896;13.342;2023-02-17T06:13:53;93453.97;;;3.62;71.66
39613;BME280;25303;48.896;13.342;2023-02-17T06:16:36;93463.44;;;3.60;71.63
39613;BME280;25303;48.896;13.342;2023-02-17T06:19:19;93456.84;;;3.58;72.14
39613;BME280;25303;48.896;13.342;2023-02-17T06:22:03;93450.00;;;3.58;72.50
39613;BME280;25303;48.896;13.342;2023-02-17T06:24:46;93456.22;;;3.54;75.55
39613;BME280;25303;48.896;13.342;2023-02-17T06:27:29;93453.38;;;3.59;74.01
39613;BME280;25303;48.896;13.342;2023-02-17T06:30:13;93460.91;;;3.47;75.02
39613;BME280;25303;48.896;13.342;2023-02-17T06:32:56;93463.28;;;3.36;77.09
39613;BME280;25303;48.896;13.342;2023-02-17T06:35:39;93460.44;;;3.41;75.34
39613;BME280;25303;48.896;13.342;2023-02-17T06:38:23;93459.84;;;3.37;75.34
39613;BME280;25303;48.896;13.342;2023-02-17T06:41:06;93458.13;;;3.38;75.15
39613;BME280;25303;48.896;13.342;2023-02-17T06:43:49;93456.56;;;3.22;77.45
39613;BME280;25303;48.896;13.342;2023-02-17T06:46:32;93452.81;;;3.28;76.20
39613;BME280;25303;48.896;13.342;2023-02-17T06:49:15;93445.97;;;3.28;77.10
39613;BME280;25303;48.896;13.342;2023-02-17T06:51:58;93451.78;;;3.30;77.22
39613;BME280;25303;48.896;13.342;2023-02-17T06:54:42;93447.31;;;3.34;77.40
39613;BME280;25303;48.896;13.342;2023-02-17T06:57:25;93435.00;;;3.41;76.33
39613;BME280;25303;48.896;13.342;2023-02-17T07:00:08;93429.72;;;3.44;76.73
39613;BME280;25303;48.896;13.342;2023-02-17T07:02:51;93431.88;;;3.50;76.28
39613;BME280;25303;48.896;13.342;2023-02-17T07:05:35;93436.78;;;3.53;75.76
39613;BME280;25303;48.896;13.342;2023-02-17T07:08:18;93439.09;;;3.56;75.67
39613;BME280;25303;48.896;13.342;2023-02-17T07:11:05;93436.47;;;3.58;75.39
39613;BME280;25303;48.896;13.342;2023-02-17T07:13:47;93440.66;;;3.59;75.10
39613;BME280;25303;48.896;13.342;2023-02-17T07:16:30;93437.25;;;3.58;75.18
39613;BME280;25303;48.896;13.342;2023-02-17T07:19:13;93448.16;;;3.60;74.99
39613;BME280;25303;48.896;13.342;2023-02-17T07:21:56;93444.72;;;3.61;74.90
39613;BME280;25303;48.896;13.342;2023-02-17T07:24:39;93443.78;;;3.62;74.84
39613;BME280;25303;48.896;13.342;2023-02-17T07:27:23;93453.91;;;3.64;74.69
39613;BME280;25303;48.896;13.342;2023-02-17T07:30:07;93441.97;;;3.64;75.06
39613;BME280;25303;48.896;13.342;2023-02-17T07:32:50;93442.69;;;3.67;74.82
39613;BME280;25303;48.896;13.342;2023-02-17T07:35:33;93445.13;;;3.68;74.87
39613;BME280;25303;48.896;13.342;2023-02-17T07:38:16;93442.50;;;3.70;74.74
39613;BME280;25303;48.896;13.342;2023-02-17T07:41:03;93435.25;;;3.63;75.15
39613;BME280;25303;48.896;13.342;2023-02-17T07:43:47;93435.97;;;3.65;74.88
39613;BME280;25303;48.896;13.342;2023-02-17T07:46:30;93433.31;;;3.67;74.78
39613;BME280;25303;48.896;13.342;2023-02-17T07:49:13;93440.03;;;3.68;75.07
39613;BME280;25303;48.896;13.342;2023-02-17T07:51:56;93449.50;;;3.66;74.92
39613;BME280;25303;48.896;13.342;2023-02-17T07:54:39;93455.50;;;3.65;75.08
39613;BME280;25303;48.896;13.342;2023-02-17T07:57:21;93449.59;;;3.64;75.08
39613;BME280;25303;48.896;13.342;2023-02-17T08:00:07;93450.63;;;3.62;75.09
39613;BME280;25303;48.896;13.342;2023-02-17T08:02:54;93450.63;;;3.62;75.32
39613;BME280;25303;48.896;13.342;2023-02-17T08:05:38;93450.41;;;3.65;75.13
39613;BME280;25303;48.896;13.342;2023-02-17T08:08:21;93442.84;;;3.50;75.59
39613;BME280;25303;48.896;13.342;2023-02-17T08:11:21;93444.69;;;3.36;76.24
39613;BME280;25303;48.896;13.342;2023-02-17T08:14:25;93444.97;;;3.31;76.53
39613;BME280;25303;48.896;13.342;2023-02-17T08:17:09;93446.69;;;3.30;76.73
39613;BME280;25303;48.896;13.342;2023-02-17T08:19:52;93441.59;;;3.30;76.69
39613;BME280;25303;48.896;13.342;2023-02-17T08:22:35;93441.78;;;3.27;77.12
39613;BME280;25303;48.896;13.342;2023-02-17T08:25:18;93441.91;;;3.26;77.28
39613;BME280;25303;48.896;13.342;2023-02-17T08:28:02;93432.63;;;3.25;77.61
39613;BME280;25303;48.896;13.342;2023-02-17T08:30:46;93434.34;;;3.24;77.64
39613;BME280;25303;48.896;13.342;2023-02-17T08:33:30;93436.91;;;3.24;77.67
39613;BME280;25303;48.896;13.342;2023-02-17T08:36:13;93436.81;;;3.26;77.78
39613;BME280;25303;48.896;13.342;2023-02-17T08:38:58;93441.91;;;3.26;77.84
39613;BME280;25303;48.896;13.342;2023-02-17T08:41:42;93444.16;;;3.30;77.93
39613;BME280;25303;48.896;13.342;2023-02-17T08:44:26;93444.16;;;3.30;78.28
39613;BME280;25303;48.896;13.342;2023-02-17T08:47:08;93442.44;;;3.31;78.00
39613;BME280;25303;48.896;13.342;2023-02-17T08:49:53;93447.22;;;3.36;77.74
39613;BME280;25303;48.896;13.342;2023-02-17T08:52:36;93446.59;;;3.32;78.35
39613;BME280;25303;48.896;13.342;2023-02-17T08:55:19;93450.56;;;3.36;78.22
39613;BME280;25303;48.896;13.342;2023-02-17T08:58:04;93450.28;;;3.41;78.06
39613;BME280;25303;48.896;13.342;2023-02-17T09:00:46;93446.00;;;3.41;77.88
39613;BME280;25303;48.896;13.342;2023-02-17T09:03:32;93451.91;;;3.42;77.93
39613;BME280;25303;48.896;13.342;2023-02-17T09:06:17;93454.44;;;3.42;77.96
39613;BME280;25303;48.896;13.342;2023-02-17T09:09:03;93452.72;;;3.42;78.01
39613;BME280;25303;48.896;13.342;2023-02-17T09:11:45;93452.63;;;3.44;78.15
39613;BME280;25303;48.896;13.342;2023-02-17T09:14:28;93454.06;;;3.48;78.17
39613;BME280;25303;48.896;13.342;2023-02-17T09:17:11;93453.88;;;3.51;78.33
39613;BME280;25303;48.896;13.342;2023-02-17T09:19:54;93449.50;;;3.53;78.08
39613;BME280;25303;48.896;13.342;2023-02-17T09:22:38;93443.50;;;3.54;78.15
39613;BME280;25303;48.896;13.342;2023-02-17T09:25:21;93448.38;;;3.57;78.53
39613;BME280;25303;48.896;13.342;2023-02-17T09:28:04;93447.44;;;3.58;78.43
39613;BME280;25303;48.896;13.342;2023-02-17T09:30:47;93454.16;;;3.59;78.42
39613;BME280;25303;48.896;13.342;2023-02-17T09:33:30;93453.19;;;3.62;78.40
39613;BME280;25303;48.896;13.342;2023-02-17T09:36:16;93453.97;;;3.62;78.39
39613;BME280;25303;48.896;13.342;2023-02-17T09:39:01;93453.06;;;3.63;78.67
39613;BME280;25303;48.896;13.342;2023-02-17T09:41:46;93458.16;;;3.63;78.74
39613;BME280;25303;48.896;13.342;2023-02-17T09:44:36;93457.25;;;3.64;78.49
39613;BME280;25303;48.896;13.342;2023-02-17T09:47:24;93461.44;;;3.65;78.54
39613;BME280;25303;48.896;13.342;2023-02-17T09:50:09;93460.50;;;3.67;78.66
39613;BME280;25303;48.896;13.342;2023-02-17T09:52:56;93451.13;;;3.67;78.48
39613;BME280;25303;48.896;13.342;2023-02-17T09:55:45;93451.97;;;3.68;78.85
39613;BME280;25303;48.896;13.342;2023-02-17T09:58:32;93452.75;;;3.68;79.09
39613;BME280;25303;48.896;13.342;2023-02-17T10:01:19;93466.22;;;3.70;78.68
39613;BME280;25303;48.896;13.342;2023-02-17T10:04:07;93452.69;;;3.70;79.10
39613;BME280;25303;48.896;13.342;2023-02-17T10:06:54;93453.41;;;3.72;79.22
39613;BME280;25303;48.896;13.342;2023-02-17T10:09:47;93454.09;;;3.74;79.14
39613;BME280;25303;48.896;13.342;2023-02-17T10:12:33;93442.00;;;3.77;78.78
39613;BME280;25303;48.896;13.342;2023-02-17T10:15:22;93450.94;;;3.83;79.18
39613;BME280;25303;48.896;13.342;2023-02-17T10:18:10;93443.84;;;3.88;78.80
39613;BME280;25303;48.896;13.342;2023-02-17T10:20:58;93444.31;;;3.93;78.91
39613;BME280;25303;48.896;13.342;2023-02-17T10:23:42;93437.31;;;3.97;78.89
39613;BME280;25303;48.896;13.342;2023-02-17T10:26:42;93438.72;;;4.01;78.84
39613;BME280;25303;48.896;13.342;2023-02-17T10:29:38;93442.69;;;4.05;78.84
39613;BME280;25303;48.896;13.342;2023-02-17T10:32:25;93454.91;;;4.13;78.69
39613;BME280;25303;48.896;13.342;2023-02-17T10:35:12;93446.25;;;4.16;78.98
39613;BME280;25303;48.896;13.342;2023-02-17T10:38:00;93446.97;;;4.18;78.48
39613;BME280;25303;48.896;13.342;2023-02-17T10:40:49;93452.38;;;4.26;78.33
39613;BME280;25303;48.896;13.342;2023-02-17T10:43:33;93446.16;;;4.30;78.18
39613;BME280;25303;48.896;13.342;2023-02-17T10:46:22;93452.97;;;4.30;78.02
39613;BME280;25303;48.896;13.342;2023-02-17T10:49:17;93463.88;;;4.32;77.99
39613;BME280;25303;48.896;13.342;2023-02-17T10:52:09;93453.38;;;4.36;77.95
39613;BME280;25303;48.896;13.342;2023-02-17T10:54:55;93455.00;;;4.37;78.16
39613;BME280;25303;48.896;13.342;2023-02-17T10:57:41;93451.53;;;4.38;77.86
39613;BME280;25303;48.896;13.342;2023-02-17T11:00:24;93447.03;;;4.42;77.90
39613;BME280;25303;48.896;13.342;2023-02-17T11:03:18;93440.09;;;4.44;77.66
39613;BME280;25303;48.896;13.342;2023-02-17T11:06:04;93444.19;;;4.47;77.66
39613;BME280;25303;48.896;13.342;2023-02-17T11:08:49;93433.88;;;4.48;77.55
39613;BME280;25303;48.896;13.342;2023-02-17T11:11:34;93427.66;;;4.52;77.62
39613;BME280;25303;48.896;13.342;2023-02-17T11:14:21;93430.69;;;4.57;77.57
39613;BME280;25303;48.896;13.342;2023-02-17T11:17:13;93421.09;;;4.61;77.60
39613;BME280;25303;48.896;13.342;2023-02-17T11:20:00;93418.09;;;4.67;77.68
39613;BME280;25303;48.896;13.342;2023-02-17T11:22:46;93413.38;;;4.74;77.58
39613;BME280;25303;48.896;13.342;2023-02-17T11:25:32;93415.19;;;4.85;77.38
39613;BME280;25303;48.896;13.342;2023-02-17T11:28:22;93408.03;;;4.90;77.41
39613;BME280;25303;48.896;13.342;2023-02-17T11:31:05;93405.25;;;4.93;76.93
39613;BME280;25303;48.896;13.342;2023-02-17T11:33:49;93404.22;;;4.96;76.87
39613;BME280;25303;48.896;13.342;2023-02-17T11:36:34;93400.09;;;5.06;76.75
39613;BME280;25303;48.896;13.342;2023-02-17T11:39:18;93394.31;;;5.04;76.42
39613;BME280;25303;48.896;13.342;2023-02-17T11:42:01;93394.56;;;5.12;76.24
39613;BME280;25303;48.896;13.342;2023-02-17T11:44:44;93388.75;;;5.10;76.12
39613;BME280;25303;48.896;13.342;2023-02-17T11:47:33;93394.00;;;5.20;76.12
39613;BME280;25303;48.896;13.342;2023-02-17T11:50:22;93398.75;;;5.25;75.86
39613;BME280;25303;48.896;13.342;2023-02-17T11:53:28;93398.66;;;5.26;75.58
39613;BME280;25303;48.896;13.342;2023-02-17T11:56:16;93391.66;;;5.17;75.53
39613;BME280;25303;48.896;13.342;2023-02-17T11:59:25;93387.38;;;5.17;75.46
39613;BME280;25303;48.896;13.342;2023-02-17T12:02:17;93382.72;;;5.11;75.61
39613;BME280;25303;48.896;13.342;2023-02-17T12:05:14;93386.16;;;4.99;76.02
39613;BME280;25303;48.896;13.342;2023-02-17T12:08:10;93378.22;;;4.91;76.03
39613;BME280;25303;48.896;13.342;2023-02-17T12:11:08;93376.13;;;4.84;76.21
39613;BME280;25303;48.896;13.342;2023-02-17T12:14:06;93381.44;;;4.81;76.24
39613;BME280;25303;48.896;13.342;2023-02-17T12:16:59;93373.41;;;4.75;76.15
39613;BME280;25303;48.896;13.342;2023-02-17T12:19:52;93360.06;;;4.71;76.22
39613;BME280;25303;48.896;13.342;2023-02-17T12:22:44;93364.53;;;4.67;76.53
39613;BME280;25303;48.896;13.342;2023-02-17T12:25:30;93354.56;;;4.64;76.32
39613;BME280;25303;48.896;13.342;2023-02-17T12:28:38;93353.16;;;4.60;76.40
39613;BME280;25303;48.896;13.342;2023-02-17T12:31:36;93360.19;;;4.56;76.50
39613;BME280;25303;48.896;13.342;2023-02-17T12:34:28;93356.72;;;4.57;76.69
39613;BME280;25303;48.896;13.342;2023-02-17T12:37:16;93355.81;;;4.59;76.73
39613;BME280;25303;48.896;13.342;2023-02-17T12:40:02;93355.81;;;4.59;77.08
39613;BME280;25303;48.896;13.342;2023-02-17T12:42:52;93371.09;;;4.59;77.00
39613;BME280;25303;48.896;13.342;2023-02-17T12:45:42;93353.47;;;4.55;78.28
39613;BME280;25303;48.896;13.342;2023-02-17T12:48:30;93361.53;;;4.62;78.21
39613;BME280;25303;48.896;13.342;2023-02-17T12:51:20;93360.81;;;4.60;79.30
39613;BME280;25303;48.896;13.342;2023-02-17T12:54:06;93369.84;;;4.64;78.65
39613;BME280;25303;48.896;13.342;2023-02-17T12:56:58;93357.94;;;4.65;78.95
39613;BME280;25303;48.896;13.342;2023-02-17T12:59:47;93364.34;;;4.70;78.87
39613;BME280;25303;48.896;13.342;2023-02-17T13:02:32;93365.84;;;4.73;78.59
39613;BME280;25303;48.896;13.342;2023-02-17T13:05:21;93364.63;;;4.79;78.91
39613;BME280;25303;48.896;13.342;2023-02-17T13:08:07;93359.91;;;4.85;78.52
39613;BME280;25303;48.896;13.342;2023-02-17T13:10:59;93362.44;;;4.85;78.15
39613;BME280;25303;48.896;13.342;2023-02-17T13:13:42;93359.28;;;4.82;77.75
39613;BME280;25303;48.896;13.342;2023-02-17T13:16:25;93366.13;;;4.81;77.96
39613;BME280;25303;48.896;13.342;2023-02-17T13:19:13;93354.28;;;4.80;78.61
39613;BME280;25303;48.896;13.342;2023-02-17T13:21:57;93354.09;;;4.83;78.10
39613;BME280;25303;48.896;13.342;2023-02-17T13:24:51;93339.47;;;4.85;78.11
39613;BME280;25303;48.896;13.342;2023-02-17T13:27:35;93339.94;;;4.91;78.15
39613;BME280;25303;48.896;13.342;2023-02-17T13:33:27;93329.31;;;4.97;78.39
39613;BME280;25303;48.896;13.342;2023-02-17T13:36:14;93329.19;;;4.98;77.90
39613;BME280;25303;48.896;13.342;2023-02-17T13:39:00;93334.06;;;5.01;78.34
39613;BME280;25303;48.896;13.342;2023-02-17T13:41:45;93334.91;;;5.02;78.01
39613;BME280;25303;48.896;13.342;2023-02-17T13:44:30;93324.34;;;5.07;77.97
39613;BME280;25303;48.896;13.342;2023-02-17T13:47:16;93325.06;;;5.09;78.25
39613;BME280;25303;48.896;13.342;2023-02-17T13:49:59;93329.34;;;5.08;77.82
39613;BME280;25303;48.896;13.342;2023-02-17T13:52:43;93328.75;;;5.05;77.87
39613;BME280;25303;48.896;13.342;2023-02-17T13:55:26;93335.69;;;5.02;78.18
39613;BME280;25303;48.896;13.342;2023-02-17T13:58:09;93340.81;;;5.02;78.26
39613;BME280;25303;48.896;13.342;2023-02-17T14:00:53;93341.63;;;5.03;78.65
39613;BME280;25303;48.896;13.342;2023-02-17T14:03:41;93342.44;;;5.04;79.36
39613;BME280;25303;48.896;13.342;2023-02-17T14:06:28;93332.22;;;5.04;79.31
39613;BME280;25303;48.896;13.342;2023-02-17T14:09:19;93341.84;;;5.00;79.42
39613;BME280;25303;48.896;13.342;2023-02-17T14:12:12;93336.03;;;4.98;79.47
39613;BME280;25303;48.896;13.342;2023-02-17T14:14:58;93342.06;;;4.97;79.51
39613;BME280;25303;48.896;13.342;2023-02-17T14:17:41;93341.03;;;4.99;79.83
39613;BME280;25303;48.896;13.342;2023-02-17T14:20:31;93341.25;;;4.96;79.90
39613;BME280;25303;48.896;13.342;2023-02-17T14:23:15;93344.97;;;4.92;79.88
39613;BME280;25303;48.896;13.342;2023-02-17T14:26:09;93352.69;;;4.91;80.21
39613;BME280;25303;48.896;13.342;2023-02-17T14:28:53;93346.81;;;4.90;79.97
39613;BME280;25303;48.896;13.342;2023-02-17T14:31:37;93349.22;;;4.92;80.36
39613;BME280;25303;48.896;13.342;2023-02-17T14:34:26;93358.84;;;4.88;80.29
39613;BME280;25303;48.896;13.342;2023-02-17T14:37:17;93369.97;;;4.87;80.94
39613;BME280;25303;48.896;13.342;2023-02-17T14:40:03;93368.25;;;4.88;81.13
39613;BME280;25303;48.896;13.342;2023-02-17T14:42:48;93357.94;;;4.89;81.18